createdAt,value
2018-03-30T00:01:19.640Z,33.33
2018-03-30T00:03:49.078Z,36.50
2018-03-30T00:06:18.365Z,34.47
2018-03-30T00:08:47.929Z,41.35
2018-03-30T00:11:22.586Z,34.25
2018-03-30T00:13:52.010Z,29.87
2018-03-30T00:16:21.265Z,33.70
2018-03-30T00:18:50.595Z,29.37
2018-03-30T00:21:20.059Z,30.10
2018-03-30T00:23:49.350Z,34.10
2018-03-30T00:26:19.127Z,29.37
2018-03-30T00:28:49.806Z,30.75
2018-03-30T00:31:20.520Z,34.94
2018-03-30T00:33:51.256Z,33.20
2018-03-30T00:36:21.728Z,35.65
2018-03-30T00:38:52.788Z,33.95
2018-03-30T00:41:23.762Z,31.95
2018-03-30T00:43:54.879Z,32.25
2018-03-30T00:46:25.742Z,33.33
2018-03-30T00:48:57.274Z,30.10
2018-03-30T00:51:27.797Z,28.90
2018-03-30T00:53:58.491Z,28.98
2018-03-30T00:56:29.126Z,31.22
2018-03-30T00:58:59.732Z,30.67
2018-03-30T01:01:30.742Z,32.13
2018-03-30T01:04:01.799Z,36.08
2018-03-30T01:06:32.673Z,37.83
2018-03-30T01:09:03.816Z,39.85
2018-03-30T01:11:34.659Z,58.60
2018-03-30T01:14:05.141Z,53.90
2018-03-30T01:16:36.670Z,61.92
2018-03-30T01:19:07.737Z,48.67
2018-03-30T01:21:38.449Z,32.25
2018-03-30T01:24:09.547Z,30.85
2018-03-30T01:26:40.537Z,32.17
2018-03-30T01:29:11.556Z,31.17
2018-03-30T01:31:42.068Z,32.28
2018-03-30T01:34:12.768Z,28.95
2018-03-30T01:36:43.708Z,27.17
2018-03-30T01:39:14.821Z,26.42
2018-03-30T01:41:45.855Z,23.35
2018-03-30T01:44:16.889Z,23.02
2018-03-30T01:46:47.382Z,22.10
2018-03-30T01:49:17.949Z,24.62
2018-03-30T01:51:48.347Z,23.54
2018-03-30T01:54:18.876Z,23.48
2018-03-30T01:56:49.695Z,22.30
2018-03-30T01:59:20.758Z,21.80
2018-03-30T02:01:51.674Z,22.87
2018-03-30T02:04:24.479Z,29.63
2018-03-30T02:06:54.272Z,25.58
2018-03-30T02:09:24.807Z,21.90
2018-03-30T02:11:55.753Z,20.83
2018-03-30T02:14:26.848Z,21.17
2018-03-30T02:16:57.741Z,19.87
2018-03-30T02:19:28.815Z,20.37
2018-03-30T02:21:59.732Z,27.37
2018-03-30T02:24:30.834Z,21.05
2018-03-30T02:27:01.690Z,21.73
2018-03-30T02:29:32.385Z,25.44
2018-03-30T02:32:03.175Z,22.35
2018-03-30T02:34:33.903Z,22.87
2018-03-30T02:37:04.745Z,19.90
2018-03-30T02:39:35.769Z,22.20
2018-03-30T02:42:06.649Z,20.70
2018-03-30T02:44:37.807Z,21.45
2018-03-30T02:47:08.719Z,22.95
2018-03-30T02:49:39.819Z,25.42
2018-03-30T02:52:10.761Z,19.75
2018-03-30T02:54:41.859Z,22.77
2018-03-30T02:57:12.700Z,23.20
2018-03-30T02:59:43.839Z,20.67
2018-03-30T03:02:14.774Z,23.38
2018-03-30T03:04:45.464Z,21.50
2018-03-30T03:07:16.148Z,24.30
2018-03-30T03:09:46.811Z,25.05
2018-03-30T03:12:17.719Z,22.33
2018-03-30T03:14:48.776Z,20.88
2018-03-30T03:17:19.702Z,18.65
2018-03-30T03:19:50.755Z,20.12
2018-03-30T03:22:21.703Z,20.95
2018-03-30T03:24:52.399Z,18.68
2018-03-30T03:27:23.064Z,20.74
2018-03-30T03:29:53.804Z,17.45
2018-03-30T03:32:25.085Z,19.48
2018-03-30T03:34:55.162Z,18.62
2018-03-30T03:37:25.770Z,20.17
2018-03-30T03:39:56.850Z,20.27
2018-03-30T03:42:27.648Z,19.00
2018-03-30T03:44:58.795Z,20.60
2018-03-30T03:47:29.442Z,19.84
2018-03-30T03:49:59.979Z,19.22
2018-03-30T03:52:30.749Z,21.35
2018-03-30T03:55:01.761Z,20.60
2018-03-30T03:57:32.799Z,20.33
2018-03-30T04:00:03.467Z,18.64
2018-03-30T04:02:34.280Z,19.80
2018-03-30T04:05:04.884Z,24.37
2018-03-30T04:07:42.816Z,24.25
2018-03-30T04:10:12.186Z,51.45
2018-03-30T04:12:41.466Z,46.66
2018-03-30T04:15:10.879Z,54.83
2018-03-30T04:17:40.191Z,68.78
2018-03-30T04:20:09.458Z,81.75
2018-03-30T04:22:40.116Z,95.74
2018-03-30T04:25:10.881Z,93.97
2018-03-30T04:27:41.772Z,93.18
2018-03-30T04:30:12.790Z,83.70
2018-03-30T04:32:43.762Z,68.82
2018-03-30T04:35:15.129Z,75.28
2018-03-30T04:37:45.848Z,72.95
2018-03-30T04:40:16.762Z,75.18
2018-03-30T04:42:47.766Z,89.55
2018-03-30T04:45:18.932Z,89.30
2018-03-30T04:47:49.857Z,81.82
2018-03-30T04:50:20.862Z,70.82
2018-03-30T04:52:51.394Z,69.62
2018-03-30T04:55:22.448Z,71.32
2018-03-30T04:57:53.450Z,68.78
2018-03-30T05:00:24.497Z,52.40
2018-03-30T05:02:55.457Z,49.35
2018-03-30T05:05:26.516Z,43.97
2018-03-30T05:07:57.263Z,54.64
2018-03-30T05:10:27.827Z,53.87
2018-03-30T05:12:58.531Z,51.35
2018-03-30T05:15:29.609Z,41.40
2018-03-30T05:18:00.577Z,32.78
2018-03-30T05:20:32.031Z,39.55
2018-03-30T05:23:02.769Z,30.85
2018-03-30T05:25:33.843Z,24.75
2018-03-30T05:28:04.689Z,24.35
2018-03-30T05:30:35.768Z,31.65
2018-03-30T05:33:06.778Z,29.25
2018-03-30T05:35:37.774Z,21.65
2018-03-30T05:38:08.796Z,21.15
2018-03-30T05:40:39.872Z,20.98
2018-03-30T05:43:10.346Z,19.56
2018-03-30T05:45:41.135Z,21.12
2018-03-30T05:48:11.596Z,21.48
2018-03-30T05:50:42.672Z,19.95
2018-03-30T05:53:13.723Z,21.83
2018-03-30T05:55:44.803Z,25.48
2018-03-30T05:58:15.643Z,27.05
2018-03-30T06:00:46.691Z,33.63
2018-03-30T06:03:17.674Z,36.55
2018-03-30T06:05:48.732Z,45.20
2018-03-30T06:08:19.728Z,32.25
2018-03-30T06:10:51.758Z,29.87
2018-03-30T06:13:22.467Z,22.96
2018-03-30T06:15:53.259Z,20.00
2018-03-30T06:18:23.789Z,20.35
2018-03-30T06:20:54.919Z,21.25
2018-03-30T06:23:25.706Z,21.80
2018-03-30T06:25:57.931Z,20.94
2018-03-30T06:28:28.303Z,18.10
2018-03-30T06:30:58.857Z,21.85
2018-03-30T06:33:29.851Z,20.92
2018-03-30T06:36:00.925Z,18.23
2018-03-30T06:38:31.968Z,21.95
2018-03-30T06:41:02.467Z,19.46
2018-03-30T06:43:33.131Z,19.62
2018-03-30T06:46:03.987Z,18.58
2018-03-30T06:48:34.705Z,19.67
2018-03-30T06:51:05.806Z,19.25
2018-03-30T06:53:36.698Z,20.15
2018-03-30T06:56:07.413Z,20.90
2018-03-30T06:58:38.104Z,20.78
2018-03-30T07:01:09.038Z,23.30
2018-03-30T07:03:39.860Z,22.62
2018-03-30T07:06:10.768Z,27.02
2018-03-30T07:08:41.804Z,20.90
2018-03-30T07:11:12.951Z,21.20
2018-03-30T07:13:45.956Z,18.90
2018-03-30T07:16:16.032Z,18.74
2018-03-30T07:18:46.564Z,23.94
2018-03-30T07:21:17.459Z,21.74
2018-03-30T07:23:48.157Z,25.30
2018-03-30T07:26:18.983Z,20.42
2018-03-30T07:28:49.934Z,19.83
2018-03-30T07:31:21.539Z,24.88
2018-03-30T07:33:51.731Z,21.27
2018-03-30T07:36:22.708Z,19.90
2018-03-30T07:38:53.536Z,21.74
2018-03-30T07:41:24.356Z,21.84
2018-03-30T07:43:55.274Z,19.62
2018-03-30T07:46:25.976Z,21.80
2018-03-30T07:48:56.940Z,19.48
2018-03-30T07:51:27.900Z,32.58
2018-03-30T07:53:59.577Z,23.46
2018-03-30T07:56:30.557Z,23.78
2018-03-30T07:59:01.381Z,29.25
2018-03-30T08:01:32.344Z,20.50
2018-03-30T08:04:02.788Z,18.92
2018-03-30T08:06:33.544Z,23.30
2018-03-30T08:09:03.852Z,21.68
2018-03-30T08:11:34.787Z,23.15
2018-03-30T08:14:05.723Z,20.67
2018-03-30T08:16:36.715Z,18.50
2018-03-30T08:19:07.553Z,22.28
2018-03-30T08:21:38.279Z,20.70
2018-03-30T08:24:08.824Z,26.25
2018-03-30T08:26:39.813Z,23.33
2018-03-30T08:29:11.134Z,21.65
2018-03-30T08:31:42.117Z,21.40
2018-03-30T08:34:13.354Z,18.72
2018-03-30T08:36:44.830Z,15.88
2018-03-30T08:39:15.709Z,19.80
2018-03-30T08:41:47.413Z,20.50
2018-03-30T08:44:17.071Z,17.33
2018-03-30T08:46:47.910Z,15.77
2018-03-30T08:49:18.764Z,20.12
2018-03-30T08:51:49.537Z,15.02
2018-03-30T08:54:20.549Z,13.27
2018-03-30T08:56:51.600Z,18.45
2018-03-30T08:59:22.280Z,16.82
2018-03-30T09:01:52.917Z,15.55
2018-03-30T09:04:25.448Z,13.90
2018-03-30T09:06:56.288Z,13.50
2018-03-30T09:09:26.364Z,12.27
2018-03-30T09:11:57.729Z,15.70
2018-03-30T09:14:28.072Z,15.60
2018-03-30T09:16:59.885Z,12.76
2018-03-30T09:19:30.433Z,14.23
2018-03-30T09:22:00.331Z,12.82
2018-03-30T09:24:30.138Z,13.65
2018-03-30T09:27:01.112Z,12.95
2018-03-30T09:29:31.088Z,11.07
2018-03-30T09:32:01.998Z,10.38
2018-03-30T09:34:32.575Z,10.32
2018-03-30T09:37:03.249Z,10.77
2018-03-30T09:39:33.040Z,9.38
2018-03-30T09:42:03.866Z,12.25
2018-03-30T09:44:34.686Z,9.07
2018-03-30T09:47:05.869Z,8.07
2018-03-30T09:49:36.774Z,9.20
2018-03-30T09:52:07.784Z,9.50
2018-03-30T09:54:38.828Z,10.63
2018-03-30T09:57:09.804Z,9.23
2018-03-30T09:59:40.769Z,7.53
2018-03-30T10:02:11.697Z,8.00
2018-03-30T10:04:45.395Z,8.90
2018-03-30T10:07:14.575Z,9.07
2018-03-30T10:09:45.305Z,7.60
2018-03-30T10:12:15.860Z,9.77
2018-03-30T10:14:46.710Z,8.07
2018-03-30T10:17:17.794Z,6.97
2018-03-30T10:19:48.711Z,7.15
2018-03-30T10:22:19.417Z,8.24
2018-03-30T10:24:50.109Z,10.04
2018-03-30T10:27:20.884Z,10.70
2018-03-30T10:29:51.730Z,9.82
2018-03-30T10:32:22.942Z,9.40
2018-03-30T10:34:53.792Z,8.52
2018-03-30T10:37:24.804Z,11.15
2018-03-30T10:39:55.389Z,13.16
2018-03-30T10:42:26.134Z,178.56
2018-03-30T10:44:57.181Z,56.28
2018-03-30T10:47:27.083Z,27.40
2018-03-30T10:49:57.887Z,11.75
2018-03-30T10:52:28.520Z,11.72
2018-03-30T10:54:59.324Z,23.62
2018-03-30T10:57:29.836Z,19.60
2018-03-30T11:00:00.913Z,44.30
2018-03-30T11:02:31.696Z,5.50
2018-03-30T11:05:02.761Z,5.68
2018-03-30T11:07:33.738Z,5.22
2018-03-30T11:10:04.881Z,7.43
2018-03-30T11:12:35.709Z,8.70
2018-03-30T11:15:06.786Z,8.57
2018-03-30T11:17:37.680Z,8.68
2018-03-30T11:20:13.784Z,6.37
2018-03-30T11:22:42.757Z,6.00
2018-03-30T11:25:11.736Z,5.53
2018-03-30T11:27:42.443Z,6.32
2018-03-30T11:30:14.069Z,9.62
2018-03-30T11:32:44.208Z,6.03
2018-03-30T11:35:14.781Z,6.22
2018-03-30T11:37:45.816Z,6.37
2018-03-30T11:40:18.593Z,6.85
2018-03-30T11:42:48.308Z,12.63
2018-03-30T11:45:18.828Z,6.20
2018-03-30T11:47:49.803Z,6.72
2018-03-30T11:50:20.819Z,6.28
2018-03-30T11:52:51.750Z,5.65
2018-03-30T11:55:22.885Z,7.18
2018-03-30T11:57:53.716Z,4.72
2018-03-30T12:00:24.449Z,6.38
2018-03-30T12:02:55.184Z,6.62
2018-03-30T12:05:25.791Z,4.72
2018-03-30T12:07:56.830Z,10.13
2018-03-30T12:10:27.784Z,5.87
2018-03-30T12:12:58.796Z,5.22
2018-03-30T12:15:29.820Z,5.18
2018-03-30T12:18:00.693Z,7.53
2018-03-30T12:20:31.384Z,6.38
2018-03-30T12:23:02.075Z,4.84
2018-03-30T12:25:32.745Z,5.53
2018-03-30T12:28:03.856Z,33.45
2018-03-30T12:30:34.827Z,11.40
2018-03-30T12:33:05.522Z,5.65
2018-03-30T12:35:36.556Z,8.52
2018-03-30T12:38:07.294Z,6.82
2018-03-30T12:40:37.751Z,7.90
2018-03-30T12:43:08.839Z,4.93
2018-03-30T12:45:39.713Z,11.05
2018-03-30T12:48:10.830Z,5.53
2018-03-30T12:50:42.023Z,6.60
2018-03-30T12:53:12.916Z,8.45
2018-03-30T12:55:43.692Z,6.00
2018-03-30T12:58:14.444Z,7.14
2018-03-30T13:00:45.080Z,8.80
2018-03-30T13:03:15.862Z,6.43
2018-03-30T13:05:46.752Z,10.43
2018-03-30T13:08:17.808Z,8.35
2018-03-30T13:10:48.694Z,7.03
2018-03-30T13:13:19.734Z,8.63
2018-03-30T13:15:50.728Z,6.95
2018-03-30T13:18:21.784Z,7.78
2018-03-30T13:20:52.722Z,9.43
2018-03-30T13:23:23.795Z,8.60
2018-03-30T13:25:54.671Z,7.78
2018-03-30T13:28:25.793Z,6.82
2018-03-30T13:30:56.812Z,7.85
2018-03-30T13:33:27.888Z,7.57
2018-03-30T13:35:58.373Z,8.00
2018-03-30T13:38:28.901Z,13.10
2018-03-30T13:40:59.697Z,6.95
2018-03-30T13:43:30.751Z,6.72
2018-03-30T13:46:01.873Z,8.82
2018-03-30T13:48:32.782Z,11.40
2018-03-30T13:51:17.980Z,10.40
2018-03-30T13:54:01.631Z,6.90
2018-03-30T13:56:31.644Z,8.67
2018-03-30T13:59:00.069Z,7.20
2018-03-30T14:01:29.309Z,6.20
2018-03-30T14:04:00.850Z,8.87
2018-03-30T14:09:31.885Z,9.67
2018-03-30T14:12:10.019Z,7.47
2018-03-30T14:14:38.420Z,7.27
2018-03-30T14:20:07.516Z,9.10
2018-03-30T14:22:41.895Z,12.00
2018-03-30T14:25:12.724Z,24.90
2018-03-30T14:27:41.136Z,34.33
2018-03-30T14:30:13.229Z,18.07
2018-03-30T14:32:58.466Z,10.87
2018-03-30T14:35:39.200Z,11.00
2018-03-30T14:38:08.548Z,7.90
2018-03-30T14:40:48.860Z,7.00
2018-03-30T14:43:22.039Z,8.90
2018-03-30T14:46:05.402Z,10.03
2018-03-30T14:48:36.732Z,17.03
2018-03-30T14:51:13.840Z,14.00
2018-03-30T14:53:45.684Z,11.77
2018-03-30T14:56:17.222Z,13.73
2018-03-30T14:58:49.243Z,9.13
2018-03-30T15:04:38.981Z,7.97
2018-03-30T15:07:16.860Z,8.37
2018-03-30T15:09:52.794Z,8.93
2018-03-30T15:12:27.997Z,9.77
2018-03-30T15:17:57.435Z,104.23
2018-03-30T15:20:29.792Z,23.40
2018-03-30T15:23:15.774Z,30.13
2018-03-30T15:28:47.747Z,62.03
2018-03-30T15:34:21.495Z,77.87
2018-03-30T15:37:01.559Z,18.07
2018-03-30T15:39:30.057Z,9.80
2018-03-30T15:42:01.295Z,10.23
2018-03-30T15:44:30.941Z,6.78
2018-03-30T15:47:02.458Z,6.93
2018-03-30T15:49:32.125Z,8.47
2018-03-30T15:52:03.608Z,12.13
2018-03-30T15:54:31.205Z,11.60
2018-03-30T15:57:00.280Z,14.20
2018-03-30T15:59:29.246Z,10.40
2018-03-30T16:01:58.108Z,16.35
2018-03-30T16:04:26.571Z,16.90
2018-03-30T16:06:54.955Z,14.73
2018-03-30T16:09:28.095Z,17.00
2018-03-30T16:11:59.433Z,20.97
2018-03-30T16:14:27.863Z,21.45
2018-03-30T16:16:56.852Z,15.26
2018-03-30T16:19:26.299Z,12.70
2018-03-30T16:21:55.770Z,24.05
2018-03-30T16:24:25.277Z,22.60
2018-03-30T16:26:52.866Z,21.83
2018-03-30T16:29:20.681Z,23.63
2018-03-30T16:31:48.276Z,34.77
2018-03-30T16:34:15.870Z,21.73
2018-03-30T16:36:43.523Z,20.43
2018-03-30T16:39:11.356Z,24.27
2018-03-30T16:41:39.287Z,25.37
2018-03-30T16:44:07.245Z,16.85
2018-03-30T16:46:35.134Z,14.93
2018-03-30T16:49:02.752Z,14.90
2018-03-30T16:51:30.417Z,13.40
2018-03-30T16:53:58.333Z,14.60
2018-03-30T16:56:26.235Z,28.38
2018-03-30T16:58:55.771Z,29.83
2018-03-30T17:01:23.388Z,30.57
2018-03-30T17:03:51.248Z,35.33
2018-03-30T17:06:19.283Z,37.35
2018-03-30T17:08:47.343Z,23.90
2018-03-30T17:11:15.284Z,19.10
2018-03-30T17:13:43.373Z,17.35
2018-03-30T17:16:11.311Z,15.73
2018-03-30T17:18:39.247Z,20.12
2018-03-30T17:21:07.240Z,27.52
2018-03-30T17:23:35.159Z,30.27
2018-03-30T17:26:02.772Z,22.93
2018-03-30T17:28:30.445Z,18.63
2018-03-30T17:30:58.356Z,17.67
2018-03-30T17:33:26.187Z,18.37
2018-03-30T17:35:54.178Z,16.90
2018-03-30T17:38:21.799Z,16.93
2018-03-30T17:40:49.399Z,15.97
2018-03-30T17:43:17.342Z,18.93
2018-03-30T17:45:45.238Z,19.03
2018-03-30T17:48:13.144Z,20.00
2018-03-30T17:50:41.136Z,19.42
2018-03-30T17:53:09.037Z,25.00
2018-03-30T17:55:36.662Z,61.73
2018-03-30T17:58:04.323Z,57.53
2018-03-30T18:00:33.080Z,45.53
2018-03-30T18:03:00.771Z,48.93
2018-03-30T18:05:28.689Z,48.97
2018-03-30T18:07:56.312Z,43.30
2018-03-30T18:10:24.012Z,46.78
2018-03-30T18:12:51.706Z,58.70
2018-03-30T18:15:19.354Z,66.00
2018-03-30T18:17:47.483Z,55.28
2018-03-30T18:20:15.251Z,44.17
2018-03-30T18:22:42.849Z,41.57
2018-03-30T18:25:11.971Z,42.38
2018-03-30T18:27:41.371Z,36.90
2018-03-30T18:30:08.971Z,35.37
2018-03-30T18:32:36.744Z,40.80
2018-03-30T18:35:04.471Z,40.87
2018-03-30T18:37:32.276Z,37.93
2018-03-30T18:39:59.892Z,40.20
2018-03-30T18:42:27.573Z,40.97
2018-03-30T18:44:55.342Z,33.83
2018-03-30T18:47:23.370Z,40.00
2018-03-30T18:49:51.338Z,37.92
2018-03-30T18:52:19.340Z,36.27
2018-03-30T18:54:47.252Z,36.15
2018-03-30T18:57:15.270Z,37.80
2018-03-30T18:59:43.192Z,34.88
2018-03-30T19:02:10.800Z,38.60
2018-03-30T19:04:38.468Z,37.30
2018-03-30T19:07:06.346Z,48.90
2018-03-30T19:09:34.269Z,52.70
2018-03-30T19:12:02.258Z,65.80
2018-03-30T19:14:30.152Z,65.15
2018-03-30T19:16:57.819Z,67.23
2018-03-30T19:19:25.481Z,55.57
2018-03-30T19:21:53.373Z,69.83
2018-03-30T19:24:21.280Z,73.03
2018-03-30T19:26:49.247Z,78.10
2018-03-30T19:29:17.238Z,77.00
2018-03-30T19:31:45.165Z,80.80
2018-03-30T19:34:12.894Z,83.73
2018-03-30T19:36:40.539Z,86.53
2018-03-30T19:39:08.270Z,87.47
2018-03-30T19:41:36.289Z,81.33
2018-03-30T19:44:04.226Z,69.10
2018-03-30T19:46:36.536Z,54.90
2018-03-30T19:49:04.371Z,39.60
2018-03-30T19:51:32.310Z,31.07
2018-03-30T19:54:00.245Z,24.08
2018-03-30T19:56:28.255Z,24.25
2018-03-30T19:58:56.153Z,27.42
2018-03-30T20:01:24.058Z,26.05
2018-03-30T20:03:51.756Z,31.40
2018-03-30T20:06:19.365Z,31.67
2018-03-30T20:08:47.232Z,30.50
2018-03-30T20:11:15.310Z,33.83
2018-03-30T20:13:43.220Z,27.05
2018-03-30T20:16:11.189Z,30.27
2018-03-30T20:18:43.907Z,29.76
2018-03-30T20:21:15.178Z,32.65
2018-03-30T20:23:43.141Z,32.25
2018-03-30T20:26:10.760Z,33.97
2018-03-30T20:28:38.848Z,30.15
2018-03-30T20:31:06.531Z,29.93
2018-03-30T20:33:34.573Z,29.63
2018-03-30T20:36:03.875Z,28.64
2018-03-30T20:38:33.439Z,27.87
2018-03-30T20:41:02.759Z,25.98
2018-03-30T20:43:32.314Z,30.33
2018-03-30T20:46:03.589Z,25.00
2018-03-30T20:48:33.162Z,25.60
2018-03-30T20:51:01.114Z,28.38
2018-03-30T20:53:28.844Z,30.47
2018-03-30T20:55:56.463Z,31.30
2018-03-30T20:58:24.384Z,28.13
2018-03-30T21:00:52.450Z,28.03
2018-03-30T21:03:20.264Z,30.10
2018-03-30T21:05:48.180Z,28.67
2018-03-30T21:08:15.862Z,30.40
2018-03-30T21:10:43.469Z,30.83
2018-03-30T21:13:11.379Z,28.53
2018-03-30T21:15:39.347Z,28.52
2018-03-30T21:18:07.313Z,29.73
2018-03-30T21:20:35.242Z,27.73
2018-03-30T21:23:03.242Z,28.77
2018-03-30T21:25:31.172Z,27.02
2018-03-30T21:27:59.086Z,25.02
2018-03-30T21:30:26.776Z,26.43
2018-03-30T21:32:54.424Z,24.90
2018-03-30T21:35:22.240Z,30.03
2018-03-30T21:37:50.194Z,44.33
2018-03-30T21:40:17.808Z,28.67
2018-03-30T21:42:45.396Z,36.30
2018-03-30T21:45:13.422Z,37.50
2018-03-30T21:47:41.328Z,37.63
2018-03-30T21:50:09.242Z,30.83
2018-03-30T21:52:37.232Z,33.70
2018-03-30T21:55:05.144Z,32.50
2018-03-30T21:57:32.745Z,29.87
2018-03-30T22:00:00.420Z,32.90
2018-03-30T22:02:28.303Z,39.53
2018-03-30T22:04:56.233Z,40.87
2018-03-30T22:07:24.556Z,70.62
2018-03-30T22:09:52.255Z,84.73
2018-03-30T22:12:20.236Z,93.27
2018-03-30T22:14:48.188Z,74.90
2018-03-30T22:17:16.097Z,65.10
2018-03-30T22:19:43.703Z,52.93
2018-03-30T22:22:11.359Z,40.03
2018-03-30T22:24:39.247Z,35.07
2018-03-30T22:27:07.154Z,30.70
2018-03-30T22:29:35.102Z,35.13
2018-03-30T22:32:02.728Z,33.10
2018-03-30T22:34:30.549Z,34.03
2018-03-30T22:36:58.714Z,30.75
2018-03-30T22:39:26.720Z,29.70
2018-03-30T22:41:54.736Z,26.00
2018-03-30T22:44:22.784Z,27.42
2018-03-30T22:46:50.836Z,25.83
2018-03-30T22:49:19.125Z,30.92
2018-03-30T22:51:49.384Z,29.78
2018-03-30T22:54:19.117Z,28.60
2018-03-30T22:56:48.650Z,25.20
2018-03-30T22:59:18.252Z,27.83
2018-03-30T23:01:47.915Z,26.62
2018-03-30T23:04:15.813Z,26.17
2018-03-30T23:06:43.780Z,26.48
2018-03-30T23:09:11.372Z,28.37
2018-03-30T23:11:39.293Z,28.40
2018-03-30T23:14:07.337Z,28.17
2018-03-30T23:16:35.233Z,27.00
2018-03-30T23:19:03.125Z,30.20
2018-03-30T23:21:30.854Z,33.00
2018-03-30T23:23:58.516Z,30.13
2018-03-30T23:26:26.373Z,32.27
2018-03-30T23:28:54.322Z,33.13
2018-03-30T23:31:22.076Z,27.77
2018-03-30T23:33:49.924Z,26.90
2018-03-30T23:36:17.445Z,28.13
2018-03-30T23:38:45.101Z,29.23
2018-03-30T23:41:12.707Z,29.33
2018-03-30T23:43:40.383Z,29.17
2018-03-30T23:46:08.267Z,32.60
2018-03-30T23:48:36.183Z,31.00
2018-03-30T23:51:04.383Z,33.70
2018-03-30T23:53:32.213Z,30.47
2018-03-30T23:56:00.103Z,29.92
2018-03-30T23:58:27.772Z,28.37
